Airfield :
LOGIN :

Register | Disclaimer

   EN    FR    IT 

 










Legend :    VFR   Marginal VFR   IFR   Intensive IFR   Very Intensive IFR
Visi :
Ceiling :
>= 8 km
>= 3000ft
5 to 8 km
1000 to 3000 ft
1500m to 5 km
500 to 1000 ft
800 to 1500m
200 to 500 ft
< 800m
< 200 ft
Symbols :   Thunderstorms  Fog  Heavy snow  Heavy precipitations  Wind > 20 kt
SIGMETs :     Misc.  Thunderstorms  Icing  Turbulence  Mountain Waves  Volcanic Ashes







- Airport Elevation : 505 ft
- IATA code : SXB
- Download approach charts


LFST - Strasbourg

CURRENT METAR :
  • 251500Z AUTO 33007KT 290V010 9999 FEW056 24/10 Q1022 NOSIG

EXPIRED METARs :
  • 251430Z AUTO 36007KT 310V070 9999 FEW056 23/10 Q1022 NOSIG
  • 251400Z AUTO 34010KT 320V020 9999 FEW052 23/10 Q1023 NOSIG
  • 251330Z AUTO 01008KT 320V050 9999 SCT050 23/11 Q1023 NOSIG
  • 251300Z AUTO 02007KT 320V080 9999 SCT048 SCT054 22/11 Q1023 NOSIG
  • 251230Z AUTO 36007KT 320V030 9999 FEW044 BKN052 21/11 Q1023 NOSIG

TAF TAF LFST
Valid from the 25 at 12:00 until the 26 at 12:00 UTC


251100Z 2512/2612 03010KT 9999 SCT050
No reported NOTAMs for that airfield.



MET'MAP, your aeronautical weather chart ! - Copyright ORBIFLY December 2007 - Disclaimer

ORBIFLY MET'MAP TEAM :

Programming & Development : Alexandra Zaïnal
Concept & Development : Baudouin d'Aumeries
Co-Development & Prog : Marc-Olivier Méhu
Technical & hardware support : Manuel Goepfert

Contact : metmap@orbifly.com




SOURCES & CREDITS :

   NOAA